sensor_id;sensor_type;location;lat;lon;timestamp;P1;durP1;ratioP1;P2;durP2;ratioP2
58139;SDS011;53185;47.378;18.922;2024-02-23T00:00:45;6.60;;;1.70;;
58139;SDS011;53185;47.378;18.922;2024-02-23T00:03:17;5.45;;;2.10;;
58139;SDS011;53185;47.378;18.922;2024-02-23T00:05:48;3.92;;;2.33;;
58139;SDS011;53185;47.378;18.922;2024-02-23T00:08:19;4.72;;;2.30;;
58139;SDS011;53185;47.378;18.922;2024-02-23T00:10:47;2.65;;;1.60;;
58139;SDS011;53185;47.378;18.922;2024-02-23T00:13:15;5.90;;;1.75;;
58139;SDS011;53185;47.378;18.922;2024-02-23T00:15:43;6.57;;;2.87;;
58139;SDS011;53185;47.378;18.922;2024-02-23T00:18:11;5.72;;;2.03;;
58139;SDS011;53185;47.378;18.922;2024-02-23T00:20:41;4.90;;;2.20;;
58139;SDS011;53185;47.378;18.922;2024-02-23T00:23:12;3.47;;;1.87;;
58139;SDS011;53185;47.378;18.922;2024-02-23T00:25:41;4.12;;;2.25;;
58139;SDS011;53185;47.378;18.922;2024-02-23T00:28:10;3.62;;;2.30;;
58139;SDS011;53185;47.378;18.922;2024-02-23T00:30:37;5.25;;;2.05;;
58139;SDS011;53185;47.378;18.922;2024-02-23T00:33:07;5.25;;;2.92;;
58139;SDS011;53185;47.378;18.922;2024-02-23T00:35:41;6.85;;;2.20;;
58139;SDS011;53185;47.378;18.922;2024-02-23T00:38:17;4.53;;;2.35;;
58139;SDS011;53185;47.378;18.922;2024-02-23T00:40:50;3.55;;;2.35;;
58139;SDS011;53185;47.378;18.922;2024-02-23T00:43:20;3.90;;;2.60;;
58139;SDS011;53185;47.378;18.922;2024-02-23T00:45:51;4.75;;;2.25;;
58139;SDS011;53185;47.378;18.922;2024-02-23T00:48:27;4.65;;;2.45;;
58139;SDS011;53185;47.378;18.922;2024-02-23T00:50:56;3.08;;;1.95;;
58139;SDS011;53185;47.378;18.922;2024-02-23T00:53:23;2.95;;;2.10;;
58139;SDS011;53185;47.378;18.922;2024-02-23T00:55:51;6.95;;;2.55;;
58139;SDS011;53185;47.378;18.922;2024-02-23T00:58:21;4.28;;;2.30;;
58139;SDS011;53185;47.378;18.922;2024-02-23T01:00:59;3.65;;;2.53;;
58139;SDS011;53185;47.378;18.922;2024-02-23T01:03:30;4.97;;;2.60;;
58139;SDS011;53185;47.378;18.922;2024-02-23T01:05:59;4.65;;;2.50;;
58139;SDS011;53185;47.378;18.922;2024-02-23T01:08:31;3.15;;;2.45;;
58139;SDS011;53185;47.378;18.922;2024-02-23T01:10:59;4.22;;;2.60;;
58139;SDS011;53185;47.378;18.922;2024-02-23T01:13:27;8.35;;;3.00;;
58139;SDS011;53185;47.378;18.922;2024-02-23T01:15:55;5.53;;;2.67;;
58139;SDS011;53185;47.378;18.922;2024-02-23T01:18:26;3.62;;;2.15;;
58139;SDS011;53185;47.378;18.922;2024-02-23T01:20:55;6.10;;;2.97;;
58139;SDS011;53185;47.378;18.922;2024-02-23T01:23:24;8.85;;;3.00;;
58139;SDS011;53185;47.378;18.922;2024-02-23T01:25:51;6.37;;;2.70;;
58139;SDS011;53185;47.378;18.922;2024-02-23T01:28:22;3.87;;;2.62;;
58139;SDS011;53185;47.378;18.922;2024-02-23T01:30:50;7.25;;;2.42;;
58139;SDS011;53185;47.378;18.922;2024-02-23T01:33:18;2.90;;;2.15;;
58139;SDS011;53185;47.378;18.922;2024-02-23T01:35:46;10.20;;;2.80;;
58139;SDS011;53185;47.378;18.922;2024-02-23T01:38:15;6.05;;;3.25;;
58139;SDS011;53185;47.378;18.922;2024-02-23T01:40:47;4.43;;;2.42;;
58139;SDS011;53185;47.378;18.922;2024-02-23T01:43:16;6.35;;;2.70;;
58139;SDS011;53185;47.378;18.922;2024-02-23T01:45:43;6.90;;;2.60;;
58139;SDS011;53185;47.378;18.922;2024-02-23T01:48:11;7.87;;;2.33;;
58139;SDS011;53185;47.378;18.922;2024-02-23T01:50:40;6.40;;;2.65;;
58139;SDS011;53185;47.378;18.922;2024-02-23T01:53:08;5.80;;;2.80;;
58139;SDS011;53185;47.378;18.922;2024-02-23T01:55:39;4.70;;;2.73;;
58139;SDS011;53185;47.378;18.922;2024-02-23T01:58:12;7.32;;;2.70;;
58139;SDS011;53185;47.378;18.922;2024-02-23T02:00:39;4.03;;;2.50;;
58139;SDS011;53185;47.378;18.922;2024-02-23T02:03:07;3.55;;;2.15;;
58139;SDS011;53185;47.378;18.922;2024-02-23T02:05:38;3.75;;;2.42;;
58139;SDS011;53185;47.378;18.922;2024-02-23T02:08:06;6.28;;;2.50;;
58139;SDS011;53185;47.378;18.922;2024-02-23T02:10:34;3.80;;;2.50;;
58139;SDS011;53185;47.378;18.922;2024-02-23T02:13:05;7.47;;;2.50;;
58139;SDS011;53185;47.378;18.922;2024-02-23T02:15:32;5.25;;;2.05;;
58139;SDS011;53185;47.378;18.922;2024-02-23T02:18:00;5.37;;;2.05;;
58139;SDS011;53185;47.378;18.922;2024-02-23T02:20:27;4.10;;;2.42;;
58139;SDS011;53185;47.378;18.922;2024-02-23T02:22:55;4.45;;;2.50;;
58139;SDS011;53185;47.378;18.922;2024-02-23T02:25:24;4.30;;;2.33;;
58139;SDS011;53185;47.378;18.922;2024-02-23T02:27:52;4.87;;;2.40;;
58139;SDS011;53185;47.378;18.922;2024-02-23T02:30:27;4.18;;;2.62;;
58139;SDS011;53185;47.378;18.922;2024-02-23T02:32:55;4.05;;;2.45;;
58139;SDS011;53185;47.378;18.922;2024-02-23T02:35:22;5.05;;;2.20;;
58139;SDS011;53185;47.378;18.922;2024-02-23T02:37:49;4.00;;;2.60;;
58139;SDS011;53185;47.378;18.922;2024-02-23T02:40:18;3.58;;;2.22;;
58139;SDS011;53185;47.378;18.922;2024-02-23T02:42:45;4.55;;;2.53;;
58139;SDS011;53185;47.378;18.922;2024-02-23T02:45:15;4.17;;;2.80;;
58139;SDS011;53185;47.378;18.922;2024-02-23T02:47:46;3.30;;;2.25;;
58139;SDS011;53185;47.378;18.922;2024-02-23T02:50:14;4.05;;;2.58;;
58139;SDS011;53185;47.378;18.922;2024-02-23T02:52:41;3.83;;;2.60;;
58139;SDS011;53185;47.378;18.922;2024-02-23T02:55:12;3.80;;;2.75;;
58139;SDS011;53185;47.378;18.922;2024-02-23T02:57:39;6.70;;;2.90;;
58139;SDS011;53185;47.378;18.922;2024-02-23T03:00:09;3.87;;;2.53;;
58139;SDS011;53185;47.378;18.922;2024-02-23T03:02:38;4.50;;;2.55;;
58139;SDS011;53185;47.378;18.922;2024-02-23T03:05:06;6.78;;;2.95;;
58139;SDS011;53185;47.378;18.922;2024-02-23T03:07:33;33.45;;;3.05;;
58139;SDS011;53185;47.378;18.922;2024-02-23T03:10:01;4.85;;;2.60;;
58139;SDS011;53185;47.378;18.922;2024-02-23T03:12:29;7.00;;;2.90;;
58139;SDS011;53185;47.378;18.922;2024-02-23T03:14:56;7.55;;;2.83;;
58139;SDS011;53185;47.378;18.922;2024-02-23T03:17:25;5.60;;;2.87;;
58139;SDS011;53185;47.378;18.922;2024-02-23T03:19:53;5.60;;;2.90;;
58139;SDS011;53185;47.378;18.922;2024-02-23T03:22:20;5.50;;;2.92;;
58139;SDS011;53185;47.378;18.922;2024-02-23T03:24:48;6.93;;;2.70;;
58139;SDS011;53185;47.378;18.922;2024-02-23T03:27:15;4.40;;;2.80;;
58139;SDS011;53185;47.378;18.922;2024-02-23T03:29:43;16.40;;;3.95;;
58139;SDS011;53185;47.378;18.922;2024-02-23T03:32:10;6.65;;;3.42;;
58139;SDS011;53185;47.378;18.922;2024-02-23T03:34:38;4.85;;;3.12;;
58139;SDS011;53185;47.378;18.922;2024-02-23T03:37:05;8.27;;;3.22;;
58139;SDS011;53185;47.378;18.922;2024-02-23T03:39:35;4.90;;;3.05;;
58139;SDS011;53185;47.378;18.922;2024-02-23T03:42:03;4.68;;;3.10;;
58139;SDS011;53185;47.378;18.922;2024-02-23T03:44:31;6.03;;;3.12;;
58139;SDS011;53185;47.378;18.922;2024-02-23T03:46:59;6.60;;;3.00;;
58139;SDS011;53185;47.378;18.922;2024-02-23T03:49:26;10.63;;;2.90;;
58139;SDS011;53185;47.378;18.922;2024-02-23T03:51:54;7.65;;;3.40;;
58139;SDS011;53185;47.378;18.922;2024-02-23T03:54:21;6.62;;;2.83;;
58139;SDS011;53185;47.378;18.922;2024-02-23T03:56:49;5.78;;;2.92;;
58139;SDS011;53185;47.378;18.922;2024-02-23T03:59:16;9.73;;;3.08;;
58139;SDS011;53185;47.378;18.922;2024-02-23T04:01:43;5.43;;;2.78;;
58139;SDS011;53185;47.378;18.922;2024-02-23T04:04:11;5.22;;;2.65;;
58139;SDS011;53185;47.378;18.922;2024-02-23T04:06:39;4.18;;;2.83;;
58139;SDS011;53185;47.378;18.922;2024-02-23T04:09:07;6.15;;;3.05;;
58139;SDS011;53185;47.378;18.922;2024-02-23T04:11:35;7.03;;;3.05;;
58139;SDS011;53185;47.378;18.922;2024-02-23T04:14:03;4.78;;;2.90;;
58139;SDS011;53185;47.378;18.922;2024-02-23T04:16:32;4.85;;;3.05;;
58139;SDS011;53185;47.378;18.922;2024-02-23T04:19:00;6.25;;;3.03;;
58139;SDS011;53185;47.378;18.922;2024-02-23T04:21:27;6.32;;;3.30;;
58139;SDS011;53185;47.378;18.922;2024-02-23T04:23:55;5.53;;;2.87;;
58139;SDS011;53185;47.378;18.922;2024-02-23T04:26:22;5.55;;;3.20;;
58139;SDS011;53185;47.378;18.922;2024-02-23T04:28:50;8.32;;;3.47;;
58139;SDS011;53185;47.378;18.922;2024-02-23T04:31:17;9.20;;;3.78;;
58139;SDS011;53185;47.378;18.922;2024-02-23T04:33:45;4.90;;;3.10;;
58139;SDS011;53185;47.378;18.922;2024-02-23T04:36:12;6.75;;;3.12;;
58139;SDS011;53185;47.378;18.922;2024-02-23T04:38:44;7.55;;;3.15;;
58139;SDS011;53185;47.378;18.922;2024-02-23T04:41:11;5.72;;;3.10;;
58139;SDS011;53185;47.378;18.922;2024-02-23T04:43:39;5.57;;;3.20;;
58139;SDS011;53185;47.378;18.922;2024-02-23T04:46:08;4.22;;;3.00;;
58139;SDS011;53185;47.378;18.922;2024-02-23T04:48:39;5.78;;;2.90;;
58139;SDS011;53185;47.378;18.922;2024-02-23T04:51:06;12.90;;;3.03;;
58139;SDS011;53185;47.378;18.922;2024-02-23T04:53:37;13.38;;;3.40;;
58139;SDS011;53185;47.378;18.922;2024-02-23T04:56:04;4.12;;;2.80;;
58139;SDS011;53185;47.378;18.922;2024-02-23T04:58:32;4.18;;;2.60;;
58139;SDS011;53185;47.378;18.922;2024-02-23T05:01:00;3.75;;;2.60;;
58139;SDS011;53185;47.378;18.922;2024-02-23T05:03:27;4.97;;;2.10;;
58139;SDS011;53185;47.378;18.922;2024-02-23T05:05:55;7.90;;;2.62;;
58139;SDS011;53185;47.378;18.922;2024-02-23T05:08:22;4.53;;;1.92;;
58139;SDS011;53185;47.378;18.922;2024-02-23T05:10:51;7.60;;;2.50;;
58139;SDS011;53185;47.378;18.922;2024-02-23T05:13:22;3.53;;;2.33;;
58139;SDS011;53185;47.378;18.922;2024-02-23T05:15:50;6.97;;;2.22;;
58139;SDS011;53185;47.378;18.922;2024-02-23T05:18:17;3.67;;;2.22;;
58139;SDS011;53185;47.378;18.922;2024-02-23T05:20:45;3.20;;;2.00;;
58139;SDS011;53185;47.378;18.922;2024-02-23T05:23:14;3.72;;;2.00;;
58139;SDS011;53185;47.378;18.922;2024-02-23T05:25:42;4.72;;;2.35;;
58139;SDS011;53185;47.378;18.922;2024-02-23T05:28:10;3.90;;;2.90;;
58139;SDS011;53185;47.378;18.922;2024-02-23T05:30:37;4.03;;;3.03;;
58139;SDS011;53185;47.378;18.922;2024-02-23T05:33:04;4.68;;;2.12;;
58139;SDS011;53185;47.378;18.922;2024-02-23T05:35:33;3.40;;;1.80;;
58139;SDS011;53185;47.378;18.922;2024-02-23T05:38:02;7.15;;;1.85;;
58139;SDS011;53185;47.378;18.922;2024-02-23T05:40:29;4.03;;;1.77;;
58139;SDS011;53185;47.378;18.922;2024-02-23T05:42:57;2.50;;;1.77;;
58139;SDS011;53185;47.378;18.922;2024-02-23T05:45:25;5.00;;;2.03;;
58139;SDS011;53185;47.378;18.922;2024-02-23T05:47:52;5.72;;;2.42;;
58139;SDS011;53185;47.378;18.922;2024-02-23T05:50:20;4.57;;;2.45;;
58139;SDS011;53185;47.378;18.922;2024-02-23T05:52:53;5.20;;;2.15;;
58139;SDS011;53185;47.378;18.922;2024-02-23T05:55:22;2.85;;;2.15;;
58139;SDS011;53185;47.378;18.922;2024-02-23T05:57:50;2.53;;;1.83;;
58139;SDS011;53185;47.378;18.922;2024-02-23T06:00:20;4.45;;;1.83;;
58139;SDS011;53185;47.378;18.922;2024-02-23T06:02:50;4.43;;;1.87;;
58139;SDS011;53185;47.378;18.922;2024-02-23T06:05:18;8.57;;;2.17;;
58139;SDS011;53185;47.378;18.922;2024-02-23T06:07:46;6.50;;;2.55;;
58139;SDS011;53185;47.378;18.922;2024-02-23T06:10:17;5.57;;;2.35;;
58139;SDS011;53185;47.378;18.922;2024-02-23T06:12:46;5.17;;;2.20;;
58139;SDS011;53185;47.378;18.922;2024-02-23T06:15:14;3.05;;;2.10;;
58139;SDS011;53185;47.378;18.922;2024-02-23T06:17:41;3.10;;;2.03;;
58139;SDS011;53185;47.378;18.922;2024-02-23T06:20:09;8.68;;;3.58;;
58139;SDS011;53185;47.378;18.922;2024-02-23T06:22:38;12.93;;;7.18;;
58139;SDS011;53185;47.378;18.922;2024-02-23T06:25:09;6.30;;;2.60;;
58139;SDS011;53185;47.378;18.922;2024-02-23T06:27:39;8.00;;;2.60;;
58139;SDS011;53185;47.378;18.922;2024-02-23T06:30:07;4.80;;;3.50;;
58139;SDS011;53185;47.378;18.922;2024-02-23T06:32:57;4.72;;;2.58;;
58139;SDS011;53185;47.378;18.922;2024-02-23T06:35:26;5.12;;;3.03;;
58139;SDS011;53185;47.378;18.922;2024-02-23T06:37:54;8.50;;;3.33;;
58139;SDS011;53185;47.378;18.922;2024-02-23T06:40:23;4.30;;;2.80;;
58139;SDS011;53185;47.378;18.922;2024-02-23T06:42:54;9.65;;;4.62;;
58139;SDS011;53185;47.378;18.922;2024-02-23T06:45:22;5.50;;;3.62;;
58139;SDS011;53185;47.378;18.922;2024-02-23T06:47:54;7.75;;;3.10;;
58139;SDS011;53185;47.378;18.922;2024-02-23T06:50:23;8.80;;;3.05;;
58139;SDS011;53185;47.378;18.922;2024-02-23T06:52:51;5.97;;;3.30;;
58139;SDS011;53185;47.378;18.922;2024-02-23T06:55:23;9.80;;;3.45;;
58139;SDS011;53185;47.378;18.922;2024-02-23T06:57:51;4.90;;;3.00;;
58139;SDS011;53185;47.378;18.922;2024-02-23T07:00:20;5.22;;;2.92;;
58139;SDS011;53185;47.378;18.922;2024-02-23T07:02:51;6.35;;;3.45;;
58139;SDS011;53185;47.378;18.922;2024-02-23T07:05:19;5.32;;;3.50;;
58139;SDS011;53185;47.378;18.922;2024-02-23T07:07:53;11.95;;;6.70;;
58139;SDS011;53185;47.378;18.922;2024-02-23T07:10:22;6.00;;;3.00;;
58139;SDS011;53185;47.378;18.922;2024-02-23T07:12:52;4.82;;;3.30;;
58139;SDS011;53185;47.378;18.922;2024-02-23T07:15:25;5.80;;;3.08;;
58139;SDS011;53185;47.378;18.922;2024-02-23T07:17:53;4.57;;;2.97;;
58139;SDS011;53185;47.378;18.922;2024-02-23T07:20:23;10.35;;;4.03;;
58139;SDS011;53185;47.378;18.922;2024-02-23T07:22:53;6.87;;;3.78;;
58139;SDS011;53185;47.378;18.922;2024-02-23T07:25:21;7.95;;;3.92;;
58139;SDS011;53185;47.378;18.922;2024-02-23T07:27:49;7.95;;;3.22;;
58139;SDS011;53185;47.378;18.922;2024-02-23T07:30:23;9.80;;;4.32;;
58139;SDS011;53185;47.378;18.922;2024-02-23T07:32:51;7.28;;;3.85;;
58139;SDS011;53185;47.378;18.922;2024-02-23T07:35:20;8.07;;;3.90;;
58139;SDS011;53185;47.378;18.922;2024-02-23T07:37:48;7.00;;;4.12;;
58139;SDS011;53185;47.378;18.922;2024-02-23T07:40:16;6.62;;;3.85;;
58139;SDS011;53185;47.378;18.922;2024-02-23T07:42:53;7.53;;;4.05;;
58139;SDS011;53185;47.378;18.922;2024-02-23T07:45:23;5.90;;;3.50;;
58139;SDS011;53185;47.378;18.922;2024-02-23T07:47:56;8.05;;;4.40;;
58139;SDS011;53185;47.378;18.922;2024-02-23T07:50:25;5.70;;;3.80;;
58139;SDS011;53185;47.378;18.922;2024-02-23T07:52:55;7.05;;;3.87;;
58139;SDS011;53185;47.378;18.922;2024-02-23T07:55:24;19.45;;;10.48;;
58139;SDS011;53185;47.378;18.922;2024-02-23T07:57:52;7.82;;;4.43;;
58139;SDS011;53185;47.378;18.922;2024-02-23T08:00:20;10.02;;;4.62;;
58139;SDS011;53185;47.378;18.922;2024-02-23T08:02:51;8.27;;;4.68;;
58139;SDS011;53185;47.378;18.922;2024-02-23T08:05:19;7.93;;;4.72;;
58139;SDS011;53185;47.378;18.922;2024-02-23T08:07:49;7.50;;;4.65;;
58139;SDS011;53185;47.378;18.922;2024-02-23T08:10:17;7.40;;;4.97;;
58139;SDS011;53185;47.378;18.922;2024-02-23T08:12:45;10.10;;;4.55;;
58139;SDS011;53185;47.378;18.922;2024-02-23T08:15:14;9.65;;;5.15;;
58139;SDS011;53185;47.378;18.922;2024-02-23T08:17:42;7.97;;;4.75;;
58139;SDS011;53185;47.378;18.922;2024-02-23T08:20:11;12.88;;;5.10;;
58139;SDS011;53185;47.378;18.922;2024-02-23T08:22:39;8.93;;;4.62;;
58139;SDS011;53185;47.378;18.922;2024-02-23T08:25:07;8.10;;;4.75;;
58139;SDS011;53185;47.378;18.922;2024-02-23T08:27:38;9.32;;;5.30;;
58139;SDS011;53185;47.378;18.922;2024-02-23T08:30:08;5.53;;;3.78;;
58139;SDS011;53185;47.378;18.922;2024-02-23T08:32:38;11.30;;;3.92;;
58139;SDS011;53185;47.378;18.922;2024-02-23T08:35:06;7.45;;;4.18;;
58139;SDS011;53185;47.378;18.922;2024-02-23T08:37:37;7.32;;;3.65;;
58139;SDS011;53185;47.378;18.922;2024-02-23T08:40:08;5.40;;;3.80;;
58139;SDS011;53185;47.378;18.922;2024-02-23T08:42:37;6.62;;;3.85;;
58139;SDS011;53185;47.378;18.922;2024-02-23T08:45:10;6.45;;;3.12;;
58139;SDS011;53185;47.378;18.922;2024-02-23T08:47:43;4.65;;;2.95;;
58139;SDS011;53185;47.378;18.922;2024-02-23T08:50:16;5.03;;;3.00;;
58139;SDS011;53185;47.378;18.922;2024-02-23T08:52:55;5.80;;;3.30;;
58139;SDS011;53185;47.378;18.922;2024-02-23T08:55:23;7.55;;;4.90;;
58139;SDS011;53185;47.378;18.922;2024-02-23T08:58:16;8.80;;;4.37;;
58139;SDS011;53185;47.378;18.922;2024-02-23T09:00:45;7.10;;;4.65;;
58139;SDS011;53185;47.378;18.922;2024-02-23T09:03:13;8.38;;;4.32;;
58139;SDS011;53185;47.378;18.922;2024-02-23T09:05:41;4.87;;;3.35;;
58139;SDS011;53185;47.378;18.922;2024-02-23T09:08:09;5.05;;;3.00;;
58139;SDS011;53185;47.378;18.922;2024-02-23T09:10:38;9.07;;;3.00;;
58139;SDS011;53185;47.378;18.922;2024-02-23T09:13:06;5.35;;;3.20;;
58139;SDS011;53185;47.378;18.922;2024-02-23T09:15:34;3.80;;;2.42;;
58139;SDS011;53185;47.378;18.922;2024-02-23T09:18:01;9.48;;;2.97;;
58139;SDS011;53185;47.378;18.922;2024-02-23T09:20:29;4.22;;;2.47;;
58139;SDS011;53185;47.378;18.922;2024-02-23T09:22:58;5.60;;;3.03;;
58139;SDS011;53185;47.378;18.922;2024-02-23T09:25:26;4.35;;;2.58;;
58139;SDS011;53185;47.378;18.922;2024-02-23T09:27:57;5.45;;;2.75;;
58139;SDS011;53185;47.378;18.922;2024-02-23T09:30:25;6.35;;;2.62;;
58139;SDS011;53185;47.378;18.922;2024-02-23T09:32:53;7.10;;;2.75;;
58139;SDS011;53185;47.378;18.922;2024-02-23T09:35:26;4.22;;;2.58;;
58139;SDS011;53185;47.378;18.922;2024-02-23T09:37:54;5.25;;;2.83;;
58139;SDS011;53185;47.378;18.922;2024-02-23T09:40:23;7.00;;;3.33;;
58139;SDS011;53185;47.378;18.922;2024-02-23T09:42:55;6.47;;;3.45;;
58139;SDS011;53185;47.378;18.922;2024-02-23T09:45:26;5.62;;;3.33;;
58139;SDS011;53185;47.378;18.922;2024-02-23T09:47:55;4.07;;;2.83;;
58139;SDS011;53185;47.378;18.922;2024-02-23T09:50:26;16.85;;;9.27;;
58139;SDS011;53185;47.378;18.922;2024-02-23T09:52:56;9.77;;;6.12;;
58139;SDS011;53185;47.378;18.922;2024-02-23T09:55:25;8.05;;;4.30;;
58139;SDS011;53185;47.378;18.922;2024-02-23T09:57:54;10.18;;;6.18;;
58139;SDS011;53185;47.378;18.922;2024-02-23T10:00:24;6.37;;;4.05;;
58139;SDS011;53185;47.378;18.922;2024-02-23T10:02:51;6.10;;;4.10;;
58139;SDS011;53185;47.378;18.922;2024-02-23T10:05:23;5.75;;;3.47;;
58139;SDS011;53185;47.378;18.922;2024-02-23T10:07:50;7.60;;;4.25;;
58139;SDS011;53185;47.378;18.922;2024-02-23T10:10:25;9.52;;;4.12;;
58139;SDS011;53185;47.378;18.922;2024-02-23T10:12:59;19.20;;;8.25;;
58139;SDS011;53185;47.378;18.922;2024-02-23T10:15:30;12.93;;;8.18;;
58139;SDS011;53185;47.378;18.922;2024-02-23T10:18:00;8.93;;;5.57;;
58139;SDS011;53185;47.378;18.922;2024-02-23T10:20:28;12.60;;;6.20;;
58139;SDS011;53185;47.378;18.922;2024-02-23T10:22:57;7.28;;;4.97;;
58139;SDS011;53185;47.378;18.922;2024-02-23T10:25:24;10.88;;;4.43;;
58139;SDS011;53185;47.378;18.922;2024-02-23T10:27:52;10.05;;;5.35;;
58139;SDS011;53185;47.378;18.922;2024-02-23T10:30:19;14.30;;;7.50;;
58139;SDS011;53185;47.378;18.922;2024-02-23T10:32:46;16.62;;;10.20;;
58139;SDS011;53185;47.378;18.922;2024-02-23T10:35:16;8.38;;;5.72;;
58139;SDS011;53185;47.378;18.922;2024-02-23T10:37:44;7.18;;;4.80;;
58139;SDS011;53185;47.378;18.922;2024-02-23T10:40:18;8.52;;;4.87;;
58139;SDS011;53185;47.378;18.922;2024-02-23T10:42:50;12.23;;;4.72;;
58139;SDS011;53185;47.378;18.922;2024-02-23T10:45:21;4.30;;;3.30;;
58139;SDS011;53185;47.378;18.922;2024-02-23T10:47:48;4.78;;;2.97;;
58139;SDS011;53185;47.378;18.922;2024-02-23T10:50:17;4.05;;;3.00;;
58139;SDS011;53185;47.378;18.922;2024-02-23T10:52:47;7.47;;;3.10;;
58139;SDS011;53185;47.378;18.922;2024-02-23T10:55:17;4.95;;;2.85;;
58139;SDS011;53185;47.378;18.922;2024-02-23T10:57:45;2.85;;;1.90;;
58139;SDS011;53185;47.378;18.922;2024-02-23T11:00:13;4.57;;;2.35;;
58139;SDS011;53185;47.378;18.922;2024-02-23T11:02:45;3.67;;;2.28;;
58139;SDS011;53185;47.378;18.922;2024-02-23T11:05:15;5.07;;;2.72;;
58139;SDS011;53185;47.378;18.922;2024-02-23T11:07:48;3.00;;;2.03;;
58139;SDS011;53185;47.378;18.922;2024-02-23T11:10:19;3.58;;;2.10;;
58139;SDS011;53185;47.378;18.922;2024-02-23T11:12:58;3.83;;;2.20;;
58139;SDS011;53185;47.378;18.922;2024-02-23T11:15:32;6.43;;;1.67;;
58139;SDS011;53185;47.378;18.922;2024-02-23T11:18:22;3.20;;;1.95;;
58139;SDS011;53185;47.378;18.922;2024-02-23T11:20:58;4.03;;;2.10;;
58139;SDS011;53185;47.378;18.922;2024-02-23T11:23:38;4.15;;;2.30;;
58139;SDS011;53185;47.378;18.922;2024-02-23T11:26:16;4.68;;;2.22;;
58139;SDS011;53185;47.378;18.922;2024-02-23T11:28:48;3.83;;;2.45;;
58139;SDS011;53185;47.378;18.922;2024-02-23T11:31:23;4.00;;;2.85;;
58139;SDS011;53185;47.378;18.922;2024-02-23T11:33:54;3.25;;;2.28;;
58139;SDS011;53185;47.378;18.922;2024-02-23T11:37:07;10.27;;;2.62;;
58139;SDS011;53185;47.378;18.922;2024-02-23T11:39:39;3.50;;;2.10;;
58139;SDS011;53185;47.378;18.922;2024-02-23T11:42:09;5.25;;;3.08;;
58139;SDS011;53185;47.378;18.922;2024-02-23T11:44:38;4.37;;;2.45;;
58139;SDS011;53185;47.378;18.922;2024-02-23T11:47:06;3.00;;;2.20;;
58139;SDS011;53185;47.378;18.922;2024-02-23T11:49:35;6.00;;;2.47;;
58139;SDS011;53185;47.378;18.922;2024-02-23T11:52:04;4.45;;;2.22;;
58139;SDS011;53185;47.378;18.922;2024-02-23T11:54:34;3.92;;;2.60;;
58139;SDS011;53185;47.378;18.922;2024-02-23T11:57:02;4.28;;;3.03;;
58139;SDS011;53185;47.378;18.922;2024-02-23T11:59:32;4.10;;;2.22;;
58139;SDS011;53185;47.378;18.922;2024-02-23T12:01:59;3.67;;;2.60;;
58139;SDS011;53185;47.378;18.922;2024-02-23T12:08:03;4.35;;;3.00;;
58139;SDS011;53185;47.378;18.922;2024-02-23T12:14:02;5.17;;;2.80;;
58139;SDS011;53185;47.378;18.922;2024-02-23T12:16:30;7.35;;;2.83;;
58139;SDS011;53185;47.378;18.922;2024-02-23T12:24:59;6.05;;;2.62;;
58139;SDS011;53185;47.378;18.922;2024-02-23T12:27:28;6.55;;;3.10;;
58139;SDS011;53185;47.378;18.922;2024-02-23T12:33:29;8.20;;;4.68;;
58139;SDS011;53185;47.378;18.922;2024-02-23T12:36:04;8.27;;;4.37;;
58139;SDS011;53185;47.378;18.922;2024-02-23T12:38:32;6.62;;;3.78;;
58139;SDS011;53185;47.378;18.922;2024-02-23T12:41:00;9.20;;;4.75;;
58139;SDS011;53185;47.378;18.922;2024-02-23T12:43:29;10.77;;;5.03;;
58139;SDS011;53185;47.378;18.922;2024-02-23T12:49:28;14.43;;;5.07;;
58139;SDS011;53185;47.378;18.922;2024-02-23T12:51:56;13.38;;;5.53;;
58139;SDS011;53185;47.378;18.922;2024-02-23T12:54:24;10.48;;;6.00;;
58139;SDS011;53185;47.378;18.922;2024-02-23T12:56:52;16.70;;;6.18;;
58139;SDS011;53185;47.378;18.922;2024-02-23T12:59:21;9.57;;;5.30;;
58139;SDS011;53185;47.378;18.922;2024-02-23T13:05:08;12.20;;;5.35;;
58139;SDS011;53185;47.378;18.922;2024-02-23T13:11:08;11.77;;;6.07;;
58139;SDS011;53185;47.378;18.922;2024-02-23T13:17:07;9.63;;;5.65;;
58139;SDS011;53185;47.378;18.922;2024-02-23T13:19:35;13.07;;;5.80;;
58139;SDS011;53185;47.378;18.922;2024-02-23T13:22:03;13.52;;;6.65;;
58139;SDS011;53185;47.378;18.922;2024-02-23T13:28:02;14.05;;;6.97;;
58139;SDS011;53185;47.378;18.922;2024-02-23T13:30:31;13.47;;;6.67;;
58139;SDS011;53185;47.378;18.922;2024-02-23T13:32:59;13.68;;;7.00;;
58139;SDS011;53185;47.378;18.922;2024-02-23T13:35:29;14.23;;;8.35;;
58139;SDS011;53185;47.378;18.922;2024-02-23T13:38:00;25.35;;;14.27;;
58139;SDS011;53185;47.378;18.922;2024-02-23T13:40:31;12.98;;;7.87;;
58139;SDS011;53185;47.378;18.922;2024-02-23T13:42:59;11.43;;;7.03;;
58139;SDS011;53185;47.378;18.922;2024-02-23T13:45:26;13.40;;;7.05;;
58139;SDS011;53185;47.378;18.922;2024-02-23T13:48:00;12.70;;;8.20;;
58139;SDS011;53185;47.378;18.922;2024-02-23T13:50:28;16.95;;;9.07;;
58139;SDS011;53185;47.378;18.922;2024-02-23T13:52:56;18.23;;;9.57;;
58139;SDS011;53185;47.378;18.922;2024-02-23T13:55:24;19.17;;;10.75;;
58139;SDS011;53185;47.378;18.922;2024-02-23T13:57:52;16.85;;;10.02;;
58139;SDS011;53185;47.378;18.922;2024-02-23T14:00:19;15.77;;;10.40;;
58139;SDS011;53185;47.378;18.922;2024-02-23T14:02:48;12.77;;;8.52;;
58139;SDS011;53185;47.378;18.922;2024-02-23T14:05:16;16.35;;;9.82;;
58139;SDS011;53185;47.378;18.922;2024-02-23T14:07:45;15.63;;;7.90;;
58139;SDS011;53185;47.378;18.922;2024-02-23T14:10:13;18.98;;;8.70;;
58139;SDS011;53185;47.378;18.922;2024-02-23T14:12:40;19.85;;;8.50;;
58139;SDS011;53185;47.378;18.922;2024-02-23T14:15:09;18.90;;;8.57;;
58139;SDS011;53185;47.378;18.922;2024-02-23T14:17:38;18.35;;;8.60;;
58139;SDS011;53185;47.378;18.922;2024-02-23T14:20:06;18.70;;;9.30;;
58139;SDS011;53185;47.378;18.922;2024-02-23T14:22:35;14.55;;;8.60;;
58139;SDS011;53185;47.378;18.922;2024-02-23T14:25:03;17.12;;;9.05;;
58139;SDS011;53185;47.378;18.922;2024-02-23T14:27:31;17.87;;;9.70;;
58139;SDS011;53185;47.378;18.922;2024-02-23T14:29:58;23.73;;;9.73;;
58139;SDS011;53185;47.378;18.922;2024-02-23T14:32:26;22.62;;;12.68;;
58139;SDS011;53185;47.378;18.922;2024-02-23T14:34:54;22.52;;;11.48;;
58139;SDS011;53185;47.378;18.922;2024-02-23T14:37:22;21.27;;;11.40;;
58139;SDS011;53185;47.378;18.922;2024-02-23T14:39:49;16.48;;;9.13;;
58139;SDS011;53185;47.378;18.922;2024-02-23T14:42:16;22.17;;;9.25;;
58139;SDS011;53185;47.378;18.922;2024-02-23T14:44:44;17.45;;;9.38;;
58139;SDS011;53185;47.378;18.922;2024-02-23T14:47:12;17.42;;;9.30;;
58139;SDS011;53185;47.378;18.922;2024-02-23T14:49:40;20.67;;;8.50;;
58139;SDS011;53185;47.378;18.922;2024-02-23T14:52:11;16.87;;;8.57;;
58139;SDS011;53185;47.378;18.922;2024-02-23T14:54:43;15.48;;;8.95;;
58139;SDS011;53185;47.378;18.922;2024-02-23T14:57:10;15.00;;;8.48;;
58139;SDS011;53185;47.378;18.922;2024-02-23T14:59:38;15.50;;;9.20;;
58139;SDS011;53185;47.378;18.922;2024-02-23T15:02:18;15.05;;;8.30;;
58139;SDS011;53185;47.378;18.922;2024-02-23T15:04:47;16.50;;;8.55;;
58139;SDS011;53185;47.378;18.922;2024-02-23T15:07:16;13.48;;;8.75;;
58139;SDS011;53185;47.378;18.922;2024-02-23T15:09:45;16.05;;;8.32;;
58139;SDS011;53185;47.378;18.922;2024-02-23T15:12:12;12.25;;;7.68;;
58139;SDS011;53185;47.378;18.922;2024-02-23T15:14:41;19.48;;;7.65;;
58139;SDS011;53185;47.378;18.922;2024-02-23T15:17:10;20.73;;;9.13;;